FXMM/MSU METAR and TAF weather

Enter ICAO airport designator
Station Type Date Time Source
FXMM METAR 2023/01/14 14:00 UTC NOAA

FXMM 141400Z 00000KT 9999 FEW035CB 32/11 Q1022 NOSIG


Station Type Date Time Source
FXMM Decoded METAR 2023/01/14 14:00 UTC NOAA

Maseru / Moshoeshoe, Lesotho (FXMM) 29-27S 027-33E
Jan 14, 2023 - 09:00 AM EST / 2023.01.14 1400 UTC
Wind: Calm:0
Visibility: greater than 7 mile(s):0
Sky conditions: mostly clear
Weather: Cumulonimbus clouds observed
Temperature: 89 F (32 C)
Dew Point: 51 F (11 C)
Relative Humidity: 27%
Pressure (altimeter): 30.18 in. Hg (1022 hPa)
ob: FXMM 141400Z 00000KT 9999 FEW035CB 32/11 Q1022 NOSIG
cycle: 14

Station Type Date Time Source
FXMM TAF 2023/01/07 09:42 UTC NOAA

TAF TAF FXMM 070600Z 0709/0721 16004KT 9999 FEW035
BECMG 0711/0713 27005KT SCT040
BECMG 0715/0717 29008KT

Example: see airport list